sensor_id;sensor_type;location;lat;lon;timestamp;temperature;humidity
13093;DHT22;6612;49.568;11.000;2023-05-15T00:02:00;16.30;64.70
13093;DHT22;6612;49.568;11.000;2023-05-15T00:04:27;16.30;64.80
13093;DHT22;6612;49.568;11.000;2023-05-15T00:06:54;16.30;64.90
13093;DHT22;6612;49.568;11.000;2023-05-15T00:09:21;16.30;64.80
13093;DHT22;6612;49.568;11.000;2023-05-15T00:11:49;16.30;64.90
13093;DHT22;6612;49.568;11.000;2023-05-15T00:14:15;16.20;64.80
13093;DHT22;6612;49.568;11.000;2023-05-15T00:16:44;16.20;64.60
13093;DHT22;6612;49.568;11.000;2023-05-15T00:19:11;16.20;64.50
13093;DHT22;6612;49.568;11.000;2023-05-15T00:21:38;16.10;64.40
13093;DHT22;6612;49.568;11.000;2023-05-15T00:24:05;16.10;64.40
13093;DHT22;6612;49.568;11.000;2023-05-15T00:26:32;16.00;64.40
13093;DHT22;6612;49.568;11.000;2023-05-15T00:28:59;16.00;64.40
13093;DHT22;6612;49.568;11.000;2023-05-15T00:31:26;15.90;64.40
13093;DHT22;6612;49.568;11.000;2023-05-15T00:33:55;15.90;64.70
13093;DHT22;6612;49.568;11.000;2023-05-15T00:36:22;15.80;64.70
13093;DHT22;6612;49.568;11.000;2023-05-15T00:38:50;15.80;64.90
13093;DHT22;6612;49.568;11.000;2023-05-15T00:41:19;15.70;65.00
13093;DHT22;6612;49.568;11.000;2023-05-15T00:43:49;15.70;65.10
13093;DHT22;6612;49.568;11.000;2023-05-15T00:46:16;15.70;65.20
13093;DHT22;6612;49.568;11.000;2023-05-15T00:48:45;15.70;65.30
13093;DHT22;6612;49.568;11.000;2023-05-15T00:51:15;15.60;65.20
13093;DHT22;6612;49.568;11.000;2023-05-15T00:53:43;15.60;65.40
13093;DHT22;6612;49.568;11.000;2023-05-15T00:56:11;15.60;65.40
13093;DHT22;6612;49.568;11.000;2023-05-15T00:58:38;15.60;65.60
13093;DHT22;6612;49.568;11.000;2023-05-15T01:01:05;15.50;66.40
13093;DHT22;6612;49.568;11.000;2023-05-15T01:03:32;15.50;65.80
13093;DHT22;6612;49.568;11.000;2023-05-15T01:05:59;15.50;66.00
13093;DHT22;6612;49.568;11.000;2023-05-15T01:08:35;15.50;66.10
13093;DHT22;6612;49.568;11.000;2023-05-15T01:11:03;15.50;65.90
13093;DHT22;6612;49.568;11.000;2023-05-15T01:13:31;15.50;66.10
13093;DHT22;6612;49.568;11.000;2023-05-15T01:15:58;15.50;66.20
13093;DHT22;6612;49.568;11.000;2023-05-15T01:18:25;15.50;66.40
13093;DHT22;6612;49.568;11.000;2023-05-15T01:21:10;15.50;66.50
13093;DHT22;6612;49.568;11.000;2023-05-15T01:23:57;15.50;66.30
13093;DHT22;6612;49.568;11.000;2023-05-15T01:27:00;15.50;66.40
13093;DHT22;6612;49.568;11.000;2023-05-15T01:29:31;15.50;66.30
13093;DHT22;6612;49.568;11.000;2023-05-15T01:32:03;15.50;66.60
13093;DHT22;6612;49.568;11.000;2023-05-15T01:34:36;15.50;66.60
13093;DHT22;6612;49.568;11.000;2023-05-15T01:37:05;15.50;66.80
13093;DHT22;6612;49.568;11.000;2023-05-15T01:39:35;15.50;67.70
13093;DHT22;6612;49.568;11.000;2023-05-15T01:42:08;15.50;67.00
13093;DHT22;6612;49.568;11.000;2023-05-15T01:44:37;15.40;66.90
13093;DHT22;6612;49.568;11.000;2023-05-15T01:47:09;15.50;67.00
13093;DHT22;6612;49.568;11.000;2023-05-15T01:49:38;15.50;67.00
13093;DHT22;6612;49.568;11.000;2023-05-15T01:52:11;15.40;66.90
13093;DHT22;6612;49.568;11.000;2023-05-15T01:54:39;15.40;66.80
13093;DHT22;6612;49.568;11.000;2023-05-15T01:57:09;15.40;66.90
13093;DHT22;6612;49.568;11.000;2023-05-15T01:59:37;15.40;66.80
13093;DHT22;6612;49.568;11.000;2023-05-15T02:02:06;15.30;66.80
13093;DHT22;6612;49.568;11.000;2023-05-15T02:04:34;15.30;66.70
13093;DHT22;6612;49.568;11.000;2023-05-15T02:07:03;15.30;66.80
13093;DHT22;6612;49.568;11.000;2023-05-15T02:09:31;15.30;66.80
13093;DHT22;6612;49.568;11.000;2023-05-15T02:12:00;15.30;66.80
13093;DHT22;6612;49.568;11.000;2023-05-15T02:14:29;15.30;67.00
13093;DHT22;6612;49.568;11.000;2023-05-15T02:16:57;15.20;67.00
13093;DHT22;6612;49.568;11.000;2023-05-15T02:19:24;15.20;67.00
13093;DHT22;6612;49.568;11.000;2023-05-15T02:21:51;15.20;67.00
13093;DHT22;6612;49.568;11.000;2023-05-15T02:24:18;15.20;67.00
13093;DHT22;6612;49.568;11.000;2023-05-15T02:26:50;15.10;66.90
13093;DHT22;6612;49.568;11.000;2023-05-15T02:29:22;15.10;66.70
13093;DHT22;6612;49.568;11.000;2023-05-15T02:32:01;15.10;66.70
13093;DHT22;6612;49.568;11.000;2023-05-15T02:34:35;15.10;66.50
13093;DHT22;6612;49.568;11.000;2023-05-15T02:37:05;15.00;66.40
13093;DHT22;6612;49.568;11.000;2023-05-15T02:39:36;14.90;66.30
13093;DHT22;6612;49.568;11.000;2023-05-15T02:42:06;14.90;66.30
13093;DHT22;6612;49.568;11.000;2023-05-15T02:44:35;14.90;66.40
13093;DHT22;6612;49.568;11.000;2023-05-15T02:47:05;14.80;66.40
13093;DHT22;6612;49.568;11.000;2023-05-15T02:49:32;14.80;66.40
13093;DHT22;6612;49.568;11.000;2023-05-15T02:52:00;14.70;66.40
13093;DHT22;6612;49.568;11.000;2023-05-15T02:54:27;14.70;66.50
13093;DHT22;6612;49.568;11.000;2023-05-15T02:56:54;14.60;66.50
13093;DHT22;6612;49.568;11.000;2023-05-15T02:59:21;14.60;66.70
13093;DHT22;6612;49.568;11.000;2023-05-15T03:01:48;14.60;66.80
13093;DHT22;6612;49.568;11.000;2023-05-15T03:04:17;14.50;66.80
13093;DHT22;6612;49.568;11.000;2023-05-15T03:06:44;14.50;66.80
13093;DHT22;6612;49.568;11.000;2023-05-15T03:09:11;14.40;66.90
13093;DHT22;6612;49.568;11.000;2023-05-15T03:11:38;14.40;67.00
13093;DHT22;6612;49.568;11.000;2023-05-15T03:14:05;14.40;67.00
13093;DHT22;6612;49.568;11.000;2023-05-15T03:16:32;14.40;67.20
13093;DHT22;6612;49.568;11.000;2023-05-15T03:19:01;14.30;67.10
13093;DHT22;6612;49.568;11.000;2023-05-15T03:21:29;14.30;67.20
13093;DHT22;6612;49.568;11.000;2023-05-15T03:23:57;14.30;67.20
13093;DHT22;6612;49.568;11.000;2023-05-15T03:26:24;14.30;67.20
13093;DHT22;6612;49.568;11.000;2023-05-15T03:28:51;14.20;67.20
13093;DHT22;6612;49.568;11.000;2023-05-15T03:31:18;14.20;67.30
13093;DHT22;6612;49.568;11.000;2023-05-15T03:33:45;14.20;67.30
13093;DHT22;6612;49.568;11.000;2023-05-15T03:36:14;14.20;67.40
13093;DHT22;6612;49.568;11.000;2023-05-15T03:38:43;14.20;67.50
13093;DHT22;6612;49.568;11.000;2023-05-15T03:41:10;14.20;67.60
13093;DHT22;6612;49.568;11.000;2023-05-15T03:43:37;14.20;67.70
13093;DHT22;6612;49.568;11.000;2023-05-15T03:46:04;14.20;67.70
13093;DHT22;6612;49.568;11.000;2023-05-15T03:48:31;14.10;67.80
13093;DHT22;6612;49.568;11.000;2023-05-15T03:50:58;14.10;67.90
13093;DHT22;6612;49.568;11.000;2023-05-15T03:53:25;14.10;68.00
13093;DHT22;6612;49.568;11.000;2023-05-15T03:55:53;14.10;68.20
13093;DHT22;6612;49.568;11.000;2023-05-15T03:58:20;14.10;68.30
13093;DHT22;6612;49.568;11.000;2023-05-15T04:00:47;14.20;68.60
13093;DHT22;6612;49.568;11.000;2023-05-15T04:03:14;14.20;68.80
13093;DHT22;6612;49.568;11.000;2023-05-15T04:05:41;14.20;69.00
13093;DHT22;6612;49.568;11.000;2023-05-15T04:08:08;14.20;69.10
13093;DHT22;6612;49.568;11.000;2023-05-15T04:10:36;14.30;69.40
13093;DHT22;6612;49.568;11.000;2023-05-15T04:13:05;14.30;69.50
13093;DHT22;6612;49.568;11.000;2023-05-15T04:15:32;14.30;69.60
13093;DHT22;6612;49.568;11.000;2023-05-15T04:17:59;14.40;69.80
13093;DHT22;6612;49.568;11.000;2023-05-15T04:20:26;14.40;69.90
13093;DHT22;6612;49.568;11.000;2023-05-15T04:22:53;14.50;70.00
13093;DHT22;6612;49.568;11.000;2023-05-15T04:25:20;14.50;69.90
13093;DHT22;6612;49.568;11.000;2023-05-15T04:27:48;14.60;70.00
13093;DHT22;6612;49.568;11.000;2023-05-15T04:30:17;14.60;69.90
13093;DHT22;6612;49.568;11.000;2023-05-15T04:32:44;14.60;69.60
13093;DHT22;6612;49.568;11.000;2023-05-15T04:35:11;14.70;69.60
13093;DHT22;6612;49.568;11.000;2023-05-15T04:37:40;14.70;69.40
13093;DHT22;6612;49.568;11.000;2023-05-15T04:40:08;14.70;69.30
13093;DHT22;6612;49.568;11.000;2023-05-15T04:42:35;14.70;69.30
13093;DHT22;6612;49.568;11.000;2023-05-15T04:45:03;14.80;70.00
13093;DHT22;6612;49.568;11.000;2023-05-15T04:47:32;14.90;71.40
13093;DHT22;6612;49.568;11.000;2023-05-15T04:49:59;15.10;72.90
13093;DHT22;6612;49.568;11.000;2023-05-15T04:52:26;15.30;74.00
13093;DHT22;6612;49.568;11.000;2023-05-15T04:54:53;15.60;74.90
13093;DHT22;6612;49.568;11.000;2023-05-15T04:57:20;15.90;75.50
13093;DHT22;6612;49.568;11.000;2023-05-15T04:59:47;16.20;75.20
13093;DHT22;6612;49.568;11.000;2023-05-15T05:02:14;16.50;74.60
13093;DHT22;6612;49.568;11.000;2023-05-15T05:04:43;16.80;74.30
13093;DHT22;6612;49.568;11.000;2023-05-15T05:07:10;17.10;73.80
13093;DHT22;6612;49.568;11.000;2023-05-15T05:09:38;17.30;74.60
13093;DHT22;6612;49.568;11.000;2023-05-15T05:12:06;17.60;75.40
13093;DHT22;6612;49.568;11.000;2023-05-15T05:14:33;18.00;76.00
13093;DHT22;6612;49.568;11.000;2023-05-15T05:17:00;18.30;76.50
13093;DHT22;6612;49.568;11.000;2023-05-15T05:19:27;18.60;76.00
13093;DHT22;6612;49.568;11.000;2023-05-15T05:21:55;18.90;75.60
13093;DHT22;6612;49.568;11.000;2023-05-15T05:24:25;19.20;74.40
13093;DHT22;6612;49.568;11.000;2023-05-15T05:26:53;19.60;74.30
13093;DHT22;6612;49.568;11.000;2023-05-15T05:29:22;19.90;73.60
13093;DHT22;6612;49.568;11.000;2023-05-15T05:31:49;20.30;73.50
13093;DHT22;6612;49.568;11.000;2023-05-15T05:34:18;20.60;73.00
13093;DHT22;6612;49.568;11.000;2023-05-15T05:36:45;21.00;73.30
13093;DHT22;6612;49.568;11.000;2023-05-15T05:39:13;21.50;75.10
13093;DHT22;6612;49.568;11.000;2023-05-15T05:41:41;22.10;74.60
13093;DHT22;6612;49.568;11.000;2023-05-15T05:44:08;22.70;76.30
13093;DHT22;6612;49.568;11.000;2023-05-15T05:46:35;23.50;76.40
13093;DHT22;6612;49.568;11.000;2023-05-15T05:49:02;24.20;75.60
13093;DHT22;6612;49.568;11.000;2023-05-15T05:51:29;24.90;74.20
13093;DHT22;6612;49.568;11.000;2023-05-15T05:53:57;25.70;71.80
13093;DHT22;6612;49.568;11.000;2023-05-15T05:56:25;26.40;71.10
13093;DHT22;6612;49.568;11.000;2023-05-15T05:58:52;27.10;69.00
13093;DHT22;6612;49.568;11.000;2023-05-15T06:01:21;27.70;67.40
13093;DHT22;6612;49.568;11.000;2023-05-15T06:03:48;28.40;65.60
13093;DHT22;6612;49.568;11.000;2023-05-15T06:06:15;29.00;64.30
13093;DHT22;6612;49.568;11.000;2023-05-15T06:08:42;29.60;62.80
13093;DHT22;6612;49.568;11.000;2023-05-15T06:11:09;30.20;61.20
13093;DHT22;6612;49.568;11.000;2023-05-15T06:13:37;30.80;60.20
13093;DHT22;6612;49.568;11.000;2023-05-15T06:16:05;31.30;58.40
13093;DHT22;6612;49.568;11.000;2023-05-15T06:18:32;31.80;57.40
13093;DHT22;6612;49.568;11.000;2023-05-15T06:20:59;32.40;56.20
13093;DHT22;6612;49.568;11.000;2023-05-15T06:23:26;32.80;54.50
13093;DHT22;6612;49.568;11.000;2023-05-15T06:25:53;33.30;53.50
13093;DHT22;6612;49.568;11.000;2023-05-15T06:28:20;33.80;52.80
13093;DHT22;6612;49.568;11.000;2023-05-15T06:30:49;34.20;51.90
13093;DHT22;6612;49.568;11.000;2023-05-15T06:33:16;34.60;50.10
13093;DHT22;6612;49.568;11.000;2023-05-15T06:35:43;35.00;50.00
13093;DHT22;6612;49.568;11.000;2023-05-15T06:38:10;35.30;48.90
13093;DHT22;6612;49.568;11.000;2023-05-15T06:40:37;35.70;48.10
13093;DHT22;6612;49.568;11.000;2023-05-15T06:43:04;36.00;47.20
13093;DHT22;6612;49.568;11.000;2023-05-15T06:45:31;36.30;46.20
13093;DHT22;6612;49.568;11.000;2023-05-15T06:47:59;36.60;45.50
13093;DHT22;6612;49.568;11.000;2023-05-15T06:50:26;36.90;44.40
13093;DHT22;6612;49.568;11.000;2023-05-15T06:52:53;37.20;44.00
13093;DHT22;6612;49.568;11.000;2023-05-15T06:55:20;37.40;43.20
13093;DHT22;6612;49.568;11.000;2023-05-15T06:57:47;37.60;42.30
13093;DHT22;6612;49.568;11.000;2023-05-15T07:00:15;37.80;41.60
13093;DHT22;6612;49.568;11.000;2023-05-15T07:02:42;37.90;40.20
13093;DHT22;6612;49.568;11.000;2023-05-15T07:05:10;37.80;38.90
13093;DHT22;6612;49.568;11.000;2023-05-15T07:07:37;37.60;37.50
13093;DHT22;6612;49.568;11.000;2023-05-15T07:10:06;37.30;36.70
13093;DHT22;6612;49.568;11.000;2023-05-15T07:12:33;36.90;36.10
13093;DHT22;6612;49.568;11.000;2023-05-15T07:15:00;36.40;36.40
13093;DHT22;6612;49.568;11.000;2023-05-15T07:17:27;36.00;35.70
13093;DHT22;6612;49.568;11.000;2023-05-15T07:19:54;35.50;35.50
13093;DHT22;6612;49.568;11.000;2023-05-15T07:22:22;35.00;35.60
13093;DHT22;6612;49.568;11.000;2023-05-15T07:24:49;34.50;36.00
13093;DHT22;6612;49.568;11.000;2023-05-15T07:27:16;34.10;36.60
13093;DHT22;6612;49.568;11.000;2023-05-15T07:29:43;33.90;36.80
13093;DHT22;6612;49.568;11.000;2023-05-15T07:32:10;33.50;37.20
13093;DHT22;6612;49.568;11.000;2023-05-15T07:34:37;33.20;37.20
13093;DHT22;6612;49.568;11.000;2023-05-15T07:37:04;32.80;37.30
13093;DHT22;6612;49.568;11.000;2023-05-15T07:39:32;32.40;37.10
13093;DHT22;6612;49.568;11.000;2023-05-15T07:41:59;32.00;37.00
13093;DHT22;6612;49.568;11.000;2023-05-15T07:44:26;31.70;37.60
13093;DHT22;6612;49.568;11.000;2023-05-15T07:46:54;31.40;37.90
13093;DHT22;6612;49.568;11.000;2023-05-15T07:49:22;31.10;38.00
13093;DHT22;6612;49.568;11.000;2023-05-15T07:51:48;30.90;38.00
13093;DHT22;6612;49.568;11.000;2023-05-15T07:54:16;30.60;38.20
13093;DHT22;6612;49.568;11.000;2023-05-15T07:56:44;30.40;38.50
13093;DHT22;6612;49.568;11.000;2023-05-15T07:59:11;30.20;38.80
13093;DHT22;6612;49.568;11.000;2023-05-15T08:01:38;30.00;39.50
13093;DHT22;6612;49.568;11.000;2023-05-15T08:04:06;29.80;39.30
13093;DHT22;6612;49.568;11.000;2023-05-15T08:06:34;29.70;39.30
13093;DHT22;6612;49.568;11.000;2023-05-15T08:09:02;29.60;39.60
13093;DHT22;6612;49.568;11.000;2023-05-15T08:11:29;29.40;39.80
13093;DHT22;6612;49.568;11.000;2023-05-15T08:13:58;29.30;40.00
13093;DHT22;6612;49.568;11.000;2023-05-15T08:16:25;29.10;40.20
13093;DHT22;6612;49.568;11.000;2023-05-15T08:18:52;29.00;40.40
13093;DHT22;6612;49.568;11.000;2023-05-15T08:21:23;28.90;40.50
13093;DHT22;6612;49.568;11.000;2023-05-15T08:23:50;28.80;40.40
13093;DHT22;6612;49.568;11.000;2023-05-15T08:26:17;28.70;40.60
13093;DHT22;6612;49.568;11.000;2023-05-15T08:28:44;28.60;40.80
13093;DHT22;6612;49.568;11.000;2023-05-15T08:31:12;28.60;41.00
13093;DHT22;6612;49.568;11.000;2023-05-15T08:33:40;28.50;40.50
13093;DHT22;6612;49.568;11.000;2023-05-15T08:36:08;28.40;40.80
13093;DHT22;6612;49.568;11.000;2023-05-15T08:38:35;28.30;41.00
13093;DHT22;6612;49.568;11.000;2023-05-15T08:41:07;28.20;41.20
13093;DHT22;6612;49.568;11.000;2023-05-15T08:43:38;28.20;40.80
13093;DHT22;6612;49.568;11.000;2023-05-15T08:46:06;28.20;41.70
13093;DHT22;6612;49.568;11.000;2023-05-15T08:48:36;28.20;42.00
13093;DHT22;6612;49.568;11.000;2023-05-15T08:51:08;28.20;41.70
13093;DHT22;6612;49.568;11.000;2023-05-15T08:53:35;28.10;41.50
13093;DHT22;6612;49.568;11.000;2023-05-15T08:56:03;28.20;42.80
13093;DHT22;6612;49.568;11.000;2023-05-15T08:58:30;28.20;42.80
13093;DHT22;6612;49.568;11.000;2023-05-15T09:00:58;28.20;42.50
13093;DHT22;6612;49.568;11.000;2023-05-15T09:03:25;28.20;42.10
13093;DHT22;6612;49.568;11.000;2023-05-15T09:05:54;28.10;42.10
13093;DHT22;6612;49.568;11.000;2023-05-15T09:08:22;28.10;42.10
13093;DHT22;6612;49.568;11.000;2023-05-15T09:10:52;28.10;41.90
13093;DHT22;6612;49.568;11.000;2023-05-15T09:13:19;28.10;41.30
13093;DHT22;6612;49.568;11.000;2023-05-15T09:15:46;28.20;41.60
13093;DHT22;6612;49.568;11.000;2023-05-15T09:18:14;28.20;41.70
13093;DHT22;6612;49.568;11.000;2023-05-15T09:20:41;28.20;41.40
13093;DHT22;6612;49.568;11.000;2023-05-15T09:23:23;28.20;41.80
13093;DHT22;6612;49.568;11.000;2023-05-15T09:25:51;28.30;40.20
13093;DHT22;6612;49.568;11.000;2023-05-15T09:28:25;28.20;41.50
13093;DHT22;6612;49.568;11.000;2023-05-15T09:30:58;28.10;40.90
13093;DHT22;6612;49.568;11.000;2023-05-15T09:33:33;28.10;41.00
13093;DHT22;6612;49.568;11.000;2023-05-15T09:36:01;27.90;40.60
13093;DHT22;6612;49.568;11.000;2023-05-15T09:38:31;27.80;41.80
13093;DHT22;6612;49.568;11.000;2023-05-15T09:41:03;27.70;41.40
13093;DHT22;6612;49.568;11.000;2023-05-15T09:43:33;27.50;41.50
13093;DHT22;6612;49.568;11.000;2023-05-15T09:46:00;27.40;41.90
13093;DHT22;6612;49.568;11.000;2023-05-15T09:48:28;27.20;42.30
13093;DHT22;6612;49.568;11.000;2023-05-15T09:50:56;27.00;42.30
13093;DHT22;6612;49.568;11.000;2023-05-15T09:53:23;26.80;42.50
13093;DHT22;6612;49.568;11.000;2023-05-15T09:55:52;26.50;42.50
13093;DHT22;6612;49.568;11.000;2023-05-15T09:58:20;26.30;42.60
13093;DHT22;6612;49.568;11.000;2023-05-15T10:00:47;26.10;43.20
13093;DHT22;6612;49.568;11.000;2023-05-15T10:03:16;25.80;43.50
13093;DHT22;6612;49.568;11.000;2023-05-15T10:05:43;25.70;44.10
13093;DHT22;6612;49.568;11.000;2023-05-15T10:08:10;25.50;44.40
13093;DHT22;6612;49.568;11.000;2023-05-15T10:10:37;25.40;44.80
13093;DHT22;6612;49.568;11.000;2023-05-15T10:13:06;25.20;45.10
13093;DHT22;6612;49.568;11.000;2023-05-15T10:15:34;25.10;45.30
13093;DHT22;6612;49.568;11.000;2023-05-15T10:18:03;25.00;45.70
13093;DHT22;6612;49.568;11.000;2023-05-15T10:20:31;25.00;46.20
13093;DHT22;6612;49.568;11.000;2023-05-15T10:23:03;25.00;46.50
13093;DHT22;6612;49.568;11.000;2023-05-15T10:25:34;24.90;46.70
13093;DHT22;6612;49.568;11.000;2023-05-15T10:28:06;24.90;46.40
13093;DHT22;6612;49.568;11.000;2023-05-15T10:30:35;24.90;47.10
13093;DHT22;6612;49.568;11.000;2023-05-15T10:33:03;25.00;47.60
13093;DHT22;6612;49.568;11.000;2023-05-15T10:35:31;24.90;47.40
13093;DHT22;6612;49.568;11.000;2023-05-15T10:37:59;25.00;47.30
13093;DHT22;6612;49.568;11.000;2023-05-15T10:40:29;25.00;47.40
13093;DHT22;6612;49.568;11.000;2023-05-15T10:42:59;25.00;47.80
13093;DHT22;6612;49.568;11.000;2023-05-15T10:45:28;25.00;48.00
13093;DHT22;6612;49.568;11.000;2023-05-15T10:47:56;25.10;47.30
13093;DHT22;6612;49.568;11.000;2023-05-15T10:50:24;25.10;47.90
13093;DHT22;6612;49.568;11.000;2023-05-15T10:52:51;25.10;47.80
13093;DHT22;6612;49.568;11.000;2023-05-15T10:55:18;25.10;47.80
13093;DHT22;6612;49.568;11.000;2023-05-15T10:57:45;25.10;47.70
13093;DHT22;6612;49.568;11.000;2023-05-15T11:00:27;25.10;47.80
13093;DHT22;6612;49.568;11.000;2023-05-15T11:02:56;25.10;46.70
13093;DHT22;6612;49.568;11.000;2023-05-15T11:05:24;25.10;47.60
13093;DHT22;6612;49.568;11.000;2023-05-15T11:08:22;25.10;47.80
13093;DHT22;6612;49.568;11.000;2023-05-15T11:10:50;25.10;46.30
13093;DHT22;6612;49.568;11.000;2023-05-15T11:13:17;25.00;47.80
13093;DHT22;6612;49.568;11.000;2023-05-15T11:15:46;25.00;47.70
13093;DHT22;6612;49.568;11.000;2023-05-15T11:18:14;25.00;47.90
13093;DHT22;6612;49.568;11.000;2023-05-15T11:21:04;25.00;48.60
13093;DHT22;6612;49.568;11.000;2023-05-15T11:23:37;25.10;48.60
13093;DHT22;6612;49.568;11.000;2023-05-15T11:26:05;25.20;47.90
13093;DHT22;6612;49.568;11.000;2023-05-15T11:28:41;25.30;48.70
13093;DHT22;6612;49.568;11.000;2023-05-15T11:31:10;25.30;47.30
13093;DHT22;6612;49.568;11.000;2023-05-15T11:33:38;25.40;47.90
13093;DHT22;6612;49.568;11.000;2023-05-15T11:36:06;25.50;48.10
13093;DHT22;6612;49.568;11.000;2023-05-15T11:38:38;25.50;47.70
13093;DHT22;6612;49.568;11.000;2023-05-15T11:41:16;25.50;46.80
13093;DHT22;6612;49.568;11.000;2023-05-15T11:43:44;25.60;46.80
13093;DHT22;6612;49.568;11.000;2023-05-15T11:46:13;25.70;47.70
13093;DHT22;6612;49.568;11.000;2023-05-15T11:48:42;25.70;47.30
13093;DHT22;6612;49.568;11.000;2023-05-15T11:51:15;25.80;47.30
13093;DHT22;6612;49.568;11.000;2023-05-15T11:53:43;25.90;46.50
13093;DHT22;6612;49.568;11.000;2023-05-15T11:56:15;25.90;46.90
13093;DHT22;6612;49.568;11.000;2023-05-15T11:58:43;26.00;47.30
13093;DHT22;6612;49.568;11.000;2023-05-15T12:01:10;26.00;47.30
13093;DHT22;6612;49.568;11.000;2023-05-15T12:03:39;26.10;47.00
13093;DHT22;6612;49.568;11.000;2023-05-15T12:06:06;26.20;45.80
13093;DHT22;6612;49.568;11.000;2023-05-15T12:08:34;26.20;45.60
13093;DHT22;6612;49.568;11.000;2023-05-15T12:11:03;26.20;46.20
13093;DHT22;6612;49.568;11.000;2023-05-15T12:13:30;26.00;46.50
13093;DHT22;6612;49.568;11.000;2023-05-15T12:15:58;25.90;46.60
13093;DHT22;6612;49.568;11.000;2023-05-15T12:18:25;25.80;46.70
13093;DHT22;6612;49.568;11.000;2023-05-15T12:20:53;25.70;46.70
13093;DHT22;6612;49.568;11.000;2023-05-15T12:23:22;25.50;47.10
13093;DHT22;6612;49.568;11.000;2023-05-15T12:25:51;25.40;47.50
13093;DHT22;6612;49.568;11.000;2023-05-15T12:28:20;25.30;48.00
13093;DHT22;6612;49.568;11.000;2023-05-15T12:30:47;25.20;48.30
13093;DHT22;6612;49.568;11.000;2023-05-15T12:33:15;25.10;48.80
13093;DHT22;6612;49.568;11.000;2023-05-15T12:35:46;25.10;49.00
13093;DHT22;6612;49.568;11.000;2023-05-15T12:38:18;25.10;49.70
13093;DHT22;6612;49.568;11.000;2023-05-15T12:40:46;25.10;50.00
13093;DHT22;6612;49.568;11.000;2023-05-15T12:43:18;25.10;49.60
13093;DHT22;6612;49.568;11.000;2023-05-15T12:45:45;25.20;48.90
13093;DHT22;6612;49.568;11.000;2023-05-15T12:48:13;25.20;48.70
13093;DHT22;6612;49.568;11.000;2023-05-15T12:50:43;25.20;48.20
13093;DHT22;6612;49.568;11.000;2023-05-15T12:53:13;25.20;47.60
13093;DHT22;6612;49.568;11.000;2023-05-15T12:55:43;25.10;47.60
13093;DHT22;6612;49.568;11.000;2023-05-15T12:58:11;25.10;48.10
13093;DHT22;6612;49.568;11.000;2023-05-15T13:00:40;25.10;47.80
13093;DHT22;6612;49.568;11.000;2023-05-15T13:03:08;25.10;47.80
13093;DHT22;6612;49.568;11.000;2023-05-15T13:05:36;25.10;47.60
13093;DHT22;6612;49.568;11.000;2023-05-15T13:08:05;25.20;47.80
13093;DHT22;6612;49.568;11.000;2023-05-15T13:10:35;25.20;46.90
13093;DHT22;6612;49.568;11.000;2023-05-15T13:13:03;25.30;47.10
13093;DHT22;6612;49.568;11.000;2023-05-15T13:15:32;25.50;46.30
13093;DHT22;6612;49.568;11.000;2023-05-15T13:18:00;25.50;46.40
13093;DHT22;6612;49.568;11.000;2023-05-15T13:20:28;25.60;46.10
13093;DHT22;6612;49.568;11.000;2023-05-15T13:22:57;25.60;45.70
13093;DHT22;6612;49.568;11.000;2023-05-15T13:25:24;25.70;45.40
13093;DHT22;6612;49.568;11.000;2023-05-15T13:27:51;25.70;45.00
13093;DHT22;6612;49.568;11.000;2023-05-15T13:30:20;25.70;44.50
13093;DHT22;6612;49.568;11.000;2023-05-15T13:32:47;25.70;44.00
13093;DHT22;6612;49.568;11.000;2023-05-15T13:35:14;25.60;44.00
13093;DHT22;6612;49.568;11.000;2023-05-15T13:37:41;25.70;44.50
13093;DHT22;6612;49.568;11.000;2023-05-15T13:40:09;25.60;43.80
13093;DHT22;6612;49.568;11.000;2023-05-15T13:42:37;25.70;43.80
13093;DHT22;6612;49.568;11.000;2023-05-15T13:45:06;25.60;43.60
13093;DHT22;6612;49.568;11.000;2023-05-15T13:47:35;25.60;43.20
13093;DHT22;6612;49.568;11.000;2023-05-15T13:50:04;25.50;43.20
13093;DHT22;6612;49.568;11.000;2023-05-15T13:52:31;25.50;43.50
13093;DHT22;6612;49.568;11.000;2023-05-15T13:54:58;25.40;42.70
13093;DHT22;6612;49.568;11.000;2023-05-15T13:57:25;25.30;42.30
13093;DHT22;6612;49.568;11.000;2023-05-15T13:59:52;25.30;42.40
13093;DHT22;6612;49.568;11.000;2023-05-15T14:02:20;25.20;42.40
13093;DHT22;6612;49.568;11.000;2023-05-15T14:04:52;25.20;42.10
13093;DHT22;6612;49.568;11.000;2023-05-15T14:07:21;25.10;42.10
13093;DHT22;6612;49.568;11.000;2023-05-15T14:09:48;25.00;42.20
13093;DHT22;6612;49.568;11.000;2023-05-15T14:12:15;25.00;42.40
13093;DHT22;6612;49.568;11.000;2023-05-15T14:14:44;24.90;42.70
13093;DHT22;6612;49.568;11.000;2023-05-15T14:17:11;24.90;43.00
13093;DHT22;6612;49.568;11.000;2023-05-15T14:19:39;24.90;42.90
13093;DHT22;6612;49.568;11.000;2023-05-15T14:22:08;24.80;42.60
13093;DHT22;6612;49.568;11.000;2023-05-15T14:24:35;24.80;42.60
13093;DHT22;6612;49.568;11.000;2023-05-15T14:27:02;24.70;42.70
13093;DHT22;6612;49.568;11.000;2023-05-15T14:29:29;24.70;42.70
13093;DHT22;6612;49.568;11.000;2023-05-15T14:31:56;24.70;42.70
13093;DHT22;6612;49.568;11.000;2023-05-15T14:34:23;24.70;43.20
13093;DHT22;6612;49.568;11.000;2023-05-15T14:36:50;24.70;43.50
13093;DHT22;6612;49.568;11.000;2023-05-15T14:39:18;24.70;43.10
13093;DHT22;6612;49.568;11.000;2023-05-15T14:41:46;24.70;42.40
13093;DHT22;6612;49.568;11.000;2023-05-15T14:44:14;24.60;42.50
13093;DHT22;6612;49.568;11.000;2023-05-15T14:46:41;24.60;42.50
13093;DHT22;6612;49.568;11.000;2023-05-15T14:49:08;24.60;42.90
13093;DHT22;6612;49.568;11.000;2023-05-15T14:51:35;24.50;42.90
13093;DHT22;6612;49.568;11.000;2023-05-15T14:54:02;24.50;43.00
13093;DHT22;6612;49.568;11.000;2023-05-15T14:56:31;24.50;43.10
13093;DHT22;6612;49.568;11.000;2023-05-15T14:58:58;24.50;42.70
13093;DHT22;6612;49.568;11.000;2023-05-15T15:01:25;24.50;42.90
13093;DHT22;6612;49.568;11.000;2023-05-15T15:03:52;24.50;43.00
13093;DHT22;6612;49.568;11.000;2023-05-15T15:06:19;24.50;43.10
13093;DHT22;6612;49.568;11.000;2023-05-15T15:08:46;24.60;43.00
13093;DHT22;6612;49.568;11.000;2023-05-15T15:11:13;24.60;42.50
13093;DHT22;6612;49.568;11.000;2023-05-15T15:13:41;24.60;42.40
13093;DHT22;6612;49.568;11.000;2023-05-15T15:16:08;24.70;42.10
13093;DHT22;6612;49.568;11.000;2023-05-15T15:18:35;24.70;42.10
13093;DHT22;6612;49.568;11.000;2023-05-15T15:21:02;24.70;41.70
13093;DHT22;6612;49.568;11.000;2023-05-15T15:23:29;24.80;41.80
13093;DHT22;6612;49.568;11.000;2023-05-15T15:25:56;24.80;41.60
13093;DHT22;6612;49.568;11.000;2023-05-15T15:28:23;24.90;41.70
13093;DHT22;6612;49.568;11.000;2023-05-15T15:30:52;24.80;41.60
13093;DHT22;6612;49.568;11.000;2023-05-15T15:33:19;24.90;41.40
13093;DHT22;6612;49.568;11.000;2023-05-15T15:35:46;24.90;41.20
13093;DHT22;6612;49.568;11.000;2023-05-15T15:38:13;24.80;41.40